sensor_id;sensor_type;location;lat;lon;timestamp;temperature;humidity
23991;DHT22;12205;50.600;4.608;2024-01-10T00:00:17;-4.00;99.90
23991;DHT22;12205;50.600;4.608;2024-01-10T00:02:44;-4.00;99.90
23991;DHT22;12205;50.600;4.608;2024-01-10T00:05:11;-4.00;99.90
23991;DHT22;12205;50.600;4.608;2024-01-10T00:07:37;-4.00;99.90
23991;DHT22;12205;50.600;4.608;2024-01-10T00:10:05;-4.00;99.90
23991;DHT22;12205;50.600;4.608;2024-01-10T00:12:32;-4.00;99.90
23991;DHT22;12205;50.600;4.608;2024-01-10T00:15:04;-4.10;99.90
23991;DHT22;12205;50.600;4.608;2024-01-10T00:17:31;-4.00;99.90
23991;DHT22;12205;50.600;4.608;2024-01-10T00:19:58;-4.10;99.90
23991;DHT22;12205;50.600;4.608;2024-01-10T00:22:25;-4.10;99.90
23991;DHT22;12205;50.600;4.608;2024-01-10T00:24:52;-4.10;99.90
23991;DHT22;12205;50.600;4.608;2024-01-10T00:27:19;-4.10;99.90
23991;DHT22;12205;50.600;4.608;2024-01-10T00:29:46;-4.10;99.90
23991;DHT22;12205;50.600;4.608;2024-01-10T00:32:14;-4.10;99.90
23991;DHT22;12205;50.600;4.608;2024-01-10T00:34:41;-4.10;99.90
23991;DHT22;12205;50.600;4.608;2024-01-10T00:37:08;-4.10;99.90
23991;DHT22;12205;50.600;4.608;2024-01-10T00:39:35;-4.10;99.90
23991;DHT22;12205;50.600;4.608;2024-01-10T00:42:02;-4.20;99.90
23991;DHT22;12205;50.600;4.608;2024-01-10T00:44:29;-4.20;99.90
23991;DHT22;12205;50.600;4.608;2024-01-10T00:46:56;-4.20;99.90
23991;DHT22;12205;50.600;4.608;2024-01-10T00:49:24;-4.20;99.90
23991;DHT22;12205;50.600;4.608;2024-01-10T00:51:51;-4.30;99.90
23991;DHT22;12205;50.600;4.608;2024-01-10T00:54:18;-4.30;99.90
23991;DHT22;12205;50.600;4.608;2024-01-10T00:56:45;-4.30;99.90
23991;DHT22;12205;50.600;4.608;2024-01-10T00:59:12;-4.30;99.90
23991;DHT22;12205;50.600;4.608;2024-01-10T01:01:39;-4.30;99.90
23991;DHT22;12205;50.600;4.608;2024-01-10T01:04:06;-4.30;99.90
23991;DHT22;12205;50.600;4.608;2024-01-10T01:06:34;-4.30;99.90
23991;DHT22;12205;50.600;4.608;2024-01-10T01:09:01;-4.30;99.90
23991;DHT22;12205;50.600;4.608;2024-01-10T01:11:28;-4.30;99.90
23991;DHT22;12205;50.600;4.608;2024-01-10T01:13:55;-4.30;99.90
23991;DHT22;12205;50.600;4.608;2024-01-10T01:16:22;-4.30;99.90
23991;DHT22;12205;50.600;4.608;2024-01-10T01:18:49;-4.40;99.90
23991;DHT22;12205;50.600;4.608;2024-01-10T01:21:16;-4.40;99.90
23991;DHT22;12205;50.600;4.608;2024-01-10T01:23:44;-4.40;99.90
23991;DHT22;12205;50.600;4.608;2024-01-10T01:26:11;-4.40;99.90
23991;DHT22;12205;50.600;4.608;2024-01-10T01:28:39;-4.40;99.90
23991;DHT22;12205;50.600;4.608;2024-01-10T01:31:06;-4.40;99.90
23991;DHT22;12205;50.600;4.608;2024-01-10T01:33:33;-4.40;99.90
23991;DHT22;12205;50.600;4.608;2024-01-10T01:36:00;-4.40;99.90
23991;DHT22;12205;50.600;4.608;2024-01-10T01:38:27;-4.40;99.90
23991;DHT22;12205;50.600;4.608;2024-01-10T01:40:56;-4.40;99.90
23991;DHT22;12205;50.600;4.608;2024-01-10T01:43:24;-4.40;99.90
23991;DHT22;12205;50.600;4.608;2024-01-10T01:45:53;-4.40;99.90
23991;DHT22;12205;50.600;4.608;2024-01-10T01:48:21;-4.50;99.90
23991;DHT22;12205;50.600;4.608;2024-01-10T01:50:50;-4.40;99.90
23991;DHT22;12205;50.600;4.608;2024-01-10T01:53:18;-4.50;99.90
23991;DHT22;12205;50.600;4.608;2024-01-10T01:55:45;-4.50;99.90
23991;DHT22;12205;50.600;4.608;2024-01-10T01:58:14;-4.50;99.90
23991;DHT22;12205;50.600;4.608;2024-01-10T02:00:42;-4.50;99.90
23991;DHT22;12205;50.600;4.608;2024-01-10T02:03:10;-4.50;99.90
23991;DHT22;12205;50.600;4.608;2024-01-10T02:05:37;-4.50;99.90
23991;DHT22;12205;50.600;4.608;2024-01-10T02:08:04;-4.50;99.90
23991;DHT22;12205;50.600;4.608;2024-01-10T02:10:31;-4.50;99.90
23991;DHT22;12205;50.600;4.608;2024-01-10T02:12:58;-4.50;99.90
23991;DHT22;12205;50.600;4.608;2024-01-10T02:15:26;-4.60;99.90
23991;DHT22;12205;50.600;4.608;2024-01-10T02:17:53;-4.60;99.90
23991;DHT22;12205;50.600;4.608;2024-01-10T02:20:22;-4.50;99.90
23991;DHT22;12205;50.600;4.608;2024-01-10T02:22:49;-4.50;99.90
23991;DHT22;12205;50.600;4.608;2024-01-10T02:25:18;-4.60;99.90
23991;DHT22;12205;50.600;4.608;2024-01-10T02:27:45;-4.60;99.90
23991;DHT22;12205;50.600;4.608;2024-01-10T02:30:12;-4.50;99.90
23991;DHT22;12205;50.600;4.608;2024-01-10T02:32:39;-4.60;99.90
23991;DHT22;12205;50.600;4.608;2024-01-10T02:35:07;-4.60;99.90
23991;DHT22;12205;50.600;4.608;2024-01-10T02:37:34;-4.60;99.90
23991;DHT22;12205;50.600;4.608;2024-01-10T02:40:01;-4.60;99.90
23991;DHT22;12205;50.600;4.608;2024-01-10T02:42:30;-4.60;99.90
23991;DHT22;12205;50.600;4.608;2024-01-10T02:44:57;-4.60;99.90
23991;DHT22;12205;50.600;4.608;2024-01-10T02:47:24;-4.60;99.90
23991;DHT22;12205;50.600;4.608;2024-01-10T02:49:51;-4.60;99.90
23991;DHT22;12205;50.600;4.608;2024-01-10T02:52:18;-4.60;99.90
23991;DHT22;12205;50.600;4.608;2024-01-10T02:54:46;-4.60;99.90
23991;DHT22;12205;50.600;4.608;2024-01-10T02:57:13;-4.60;99.90
23991;DHT22;12205;50.600;4.608;2024-01-10T02:59:41;-4.60;99.90
23991;DHT22;12205;50.600;4.608;2024-01-10T03:02:08;-4.60;99.90
23991;DHT22;12205;50.600;4.608;2024-01-10T03:04:35;-4.60;99.90
23991;DHT22;12205;50.600;4.608;2024-01-10T03:07:02;-4.60;99.90
23991;DHT22;12205;50.600;4.608;2024-01-10T03:09:29;-4.70;99.90
23991;DHT22;12205;50.600;4.608;2024-01-10T03:11:56;-4.70;99.90
23991;DHT22;12205;50.600;4.608;2024-01-10T03:14:23;-4.70;99.90
23991;DHT22;12205;50.600;4.608;2024-01-10T03:16:51;-4.70;99.90
23991;DHT22;12205;50.600;4.608;2024-01-10T03:19:18;-4.70;99.90
23991;DHT22;12205;50.600;4.608;2024-01-10T03:21:44;-4.70;99.90
23991;DHT22;12205;50.600;4.608;2024-01-10T03:24:11;-4.70;99.90
23991;DHT22;12205;50.600;4.608;2024-01-10T03:26:38;-4.70;99.90
23991;DHT22;12205;50.600;4.608;2024-01-10T03:29:05;-4.70;99.90
23991;DHT22;12205;50.600;4.608;2024-01-10T03:31:32;-4.70;99.90
23991;DHT22;12205;50.600;4.608;2024-01-10T03:34:01;-4.70;99.90
23991;DHT22;12205;50.600;4.608;2024-01-10T03:36:28;-4.70;99.90
23991;DHT22;12205;50.600;4.608;2024-01-10T03:38:55;-4.80;99.90
23991;DHT22;12205;50.600;4.608;2024-01-10T03:41:22;-4.80;99.90
23991;DHT22;12205;50.600;4.608;2024-01-10T03:43:49;-4.80;99.90
23991;DHT22;12205;50.600;4.608;2024-01-10T03:46:16;-4.80;99.90
23991;DHT22;12205;50.600;4.608;2024-01-10T03:48:43;-4.80;99.90
23991;DHT22;12205;50.600;4.608;2024-01-10T03:51:16;-4.80;99.90
23991;DHT22;12205;50.600;4.608;2024-01-10T03:53:44;-4.90;99.90
23991;DHT22;12205;50.600;4.608;2024-01-10T03:56:11;-4.90;99.90
23991;DHT22;12205;50.600;4.608;2024-01-10T03:58:39;-4.90;99.90
23991;DHT22;12205;50.600;4.608;2024-01-10T04:01:06;-4.90;99.90
23991;DHT22;12205;50.600;4.608;2024-01-10T04:03:33;-4.90;99.90
23991;DHT22;12205;50.600;4.608;2024-01-10T04:06:00;-4.90;99.90
23991;DHT22;12205;50.600;4.608;2024-01-10T04:08:29;-4.90;99.90
23991;DHT22;12205;50.600;4.608;2024-01-10T04:10:56;-4.90;99.90
23991;DHT22;12205;50.600;4.608;2024-01-10T04:13:23;-4.90;99.90
23991;DHT22;12205;50.600;4.608;2024-01-10T04:15:50;-4.90;99.90
23991;DHT22;12205;50.600;4.608;2024-01-10T04:18:17;-4.90;99.90
23991;DHT22;12205;50.600;4.608;2024-01-10T04:20:44;-4.90;99.90
23991;DHT22;12205;50.600;4.608;2024-01-10T04:23:11;-4.90;99.90
23991;DHT22;12205;50.600;4.608;2024-01-10T04:25:39;-4.90;99.90
23991;DHT22;12205;50.600;4.608;2024-01-10T04:28:06;-4.90;99.90
23991;DHT22;12205;50.600;4.608;2024-01-10T04:30:33;-4.90;99.90
23991;DHT22;12205;50.600;4.608;2024-01-10T04:33:00;-4.90;99.90
23991;DHT22;12205;50.600;4.608;2024-01-10T04:35:27;-4.90;99.90
23991;DHT22;12205;50.600;4.608;2024-01-10T04:37:54;-4.90;99.90
23991;DHT22;12205;50.600;4.608;2024-01-10T04:40:21;-4.90;99.90
23991;DHT22;12205;50.600;4.608;2024-01-10T04:42:49;-4.90;99.90
23991;DHT22;12205;50.600;4.608;2024-01-10T04:45:16;-4.80;99.90
23991;DHT22;12205;50.600;4.608;2024-01-10T04:47:43;-4.80;99.90
23991;DHT22;12205;50.600;4.608;2024-01-10T04:50:10;-4.80;99.90
23991;DHT22;12205;50.600;4.608;2024-01-10T04:52:37;-4.80;99.90
23991;DHT22;12205;50.600;4.608;2024-01-10T04:55:05;-4.80;99.90
23991;DHT22;12205;50.600;4.608;2024-01-10T04:57:33;-4.80;99.90
23991;DHT22;12205;50.600;4.608;2024-01-10T05:00:02;-4.80;99.90
23991;DHT22;12205;50.600;4.608;2024-01-10T05:02:30;-4.80;99.90
23991;DHT22;12205;50.600;4.608;2024-01-10T05:04:58;-4.80;99.90
23991;DHT22;12205;50.600;4.608;2024-01-10T05:07:25;-4.80;99.90
23991;DHT22;12205;50.600;4.608;2024-01-10T05:09:52;-4.80;99.90
23991;DHT22;12205;50.600;4.608;2024-01-10T05:12:19;-4.80;99.90
23991;DHT22;12205;50.600;4.608;2024-01-10T05:14:46;-4.80;99.90
23991;DHT22;12205;50.600;4.608;2024-01-10T05:17:14;-4.80;99.90
23991;DHT22;12205;50.600;4.608;2024-01-10T05:19:41;-4.80;99.90
23991;DHT22;12205;50.600;4.608;2024-01-10T05:22:08;-4.80;99.90
23991;DHT22;12205;50.600;4.608;2024-01-10T05:24:35;-4.80;99.90
23991;DHT22;12205;50.600;4.608;2024-01-10T05:27:02;-4.80;99.90
23991;DHT22;12205;50.600;4.608;2024-01-10T05:29:29;-4.80;99.90
23991;DHT22;12205;50.600;4.608;2024-01-10T05:31:56;-4.80;99.90
23991;DHT22;12205;50.600;4.608;2024-01-10T05:34:24;-4.80;99.90
23991;DHT22;12205;50.600;4.608;2024-01-10T05:36:51;-4.90;99.90
23991;DHT22;12205;50.600;4.608;2024-01-10T05:39:19;-4.80;99.90
23991;DHT22;12205;50.600;4.608;2024-01-10T05:41:47;-4.80;99.90
23991;DHT22;12205;50.600;4.608;2024-01-10T05:44:14;-4.80;99.90
23991;DHT22;12205;50.600;4.608;2024-01-10T05:46:41;-4.80;99.90
23991;DHT22;12205;50.600;4.608;2024-01-10T05:49:09;-4.80;99.90
23991;DHT22;12205;50.600;4.608;2024-01-10T05:51:37;-4.80;99.90
23991;DHT22;12205;50.600;4.608;2024-01-10T05:54:04;-4.80;99.90
23991;DHT22;12205;50.600;4.608;2024-01-10T05:56:32;-4.80;99.90
23991;DHT22;12205;50.600;4.608;2024-01-10T05:58:59;-4.80;99.90
23991;DHT22;12205;50.600;4.608;2024-01-10T06:01:27;-4.80;99.90
23991;DHT22;12205;50.600;4.608;2024-01-10T06:03:54;-4.80;99.90
23991;DHT22;12205;50.600;4.608;2024-01-10T06:06:22;-4.80;99.90
23991;DHT22;12205;50.600;4.608;2024-01-10T06:08:51;-4.80;99.90
23991;DHT22;12205;50.600;4.608;2024-01-10T06:11:18;-4.80;99.90
23991;DHT22;12205;50.600;4.608;2024-01-10T06:13:45;-4.80;99.90
23991;DHT22;12205;50.600;4.608;2024-01-10T06:16:12;-4.80;99.90
23991;DHT22;12205;50.600;4.608;2024-01-10T06:18:39;-4.80;99.90
23991;DHT22;12205;50.600;4.608;2024-01-10T06:21:06;-4.80;99.90
23991;DHT22;12205;50.600;4.608;2024-01-10T06:23:33;-4.80;99.90
23991;DHT22;12205;50.600;4.608;2024-01-10T06:26:01;-4.80;99.90
23991;DHT22;12205;50.600;4.608;2024-01-10T06:28:29;-4.80;99.90
23991;DHT22;12205;50.600;4.608;2024-01-10T06:30:56;-4.80;99.90
23991;DHT22;12205;50.600;4.608;2024-01-10T06:33:23;-4.80;99.90
23991;DHT22;12205;50.600;4.608;2024-01-10T06:35:51;-4.80;99.90
23991;DHT22;12205;50.600;4.608;2024-01-10T06:38:18;-4.80;99.90
23991;DHT22;12205;50.600;4.608;2024-01-10T06:40:46;-4.80;99.90
23991;DHT22;12205;50.600;4.608;2024-01-10T06:43:15;-4.80;99.90
23991;DHT22;12205;50.600;4.608;2024-01-10T06:45:42;-4.80;99.90
23991;DHT22;12205;50.600;4.608;2024-01-10T06:48:09;-4.80;99.90
23991;DHT22;12205;50.600;4.608;2024-01-10T06:50:36;-4.80;99.90
23991;DHT22;12205;50.600;4.608;2024-01-10T06:53:03;-4.80;99.90
23991;DHT22;12205;50.600;4.608;2024-01-10T06:55:30;-4.80;99.90
23991;DHT22;12205;50.600;4.608;2024-01-10T06:57:57;-4.80;99.90
23991;DHT22;12205;50.600;4.608;2024-01-10T07:00:25;-4.80;99.90
23991;DHT22;12205;50.600;4.608;2024-01-10T07:02:52;-4.80;99.90
23991;DHT22;12205;50.600;4.608;2024-01-10T07:05:19;-4.80;99.90
23991;DHT22;12205;50.600;4.608;2024-01-10T07:07:46;-4.80;99.90
23991;DHT22;12205;50.600;4.608;2024-01-10T07:10:15;-4.80;99.90
23991;DHT22;12205;50.600;4.608;2024-01-10T07:12:42;-4.80;99.90
23991;DHT22;12205;50.600;4.608;2024-01-10T07:15:09;-4.80;99.90
23991;DHT22;12205;50.600;4.608;2024-01-10T07:17:38;-4.80;99.90
23991;DHT22;12205;50.600;4.608;2024-01-10T07:20:06;-4.80;99.90
23991;DHT22;12205;50.600;4.608;2024-01-10T07:22:34;-4.80;99.90
23991;DHT22;12205;50.600;4.608;2024-01-10T07:25:01;-4.80;99.90
23991;DHT22;12205;50.600;4.608;2024-01-10T07:27:28;-4.80;99.90
23991;DHT22;12205;50.600;4.608;2024-01-10T07:29:55;-4.70;99.90
23991;DHT22;12205;50.600;4.608;2024-01-10T07:32:23;-4.80;99.90
23991;DHT22;12205;50.600;4.608;2024-01-10T07:34:51;-4.70;99.90
23991;DHT22;12205;50.600;4.608;2024-01-10T07:37:18;-4.70;99.90
23991;DHT22;12205;50.600;4.608;2024-01-10T07:39:46;-4.70;99.90
23991;DHT22;12205;50.600;4.608;2024-01-10T07:42:12;-4.70;99.90
23991;DHT22;12205;50.600;4.608;2024-01-10T07:44:39;-4.70;99.90
23991;DHT22;12205;50.600;4.608;2024-01-10T07:47:06;-4.70;99.90
23991;DHT22;12205;50.600;4.608;2024-01-10T07:49:33;-4.70;99.90
23991;DHT22;12205;50.600;4.608;2024-01-10T07:52:03;-4.70;99.90
23991;DHT22;12205;50.600;4.608;2024-01-10T07:54:30;-4.70;99.90
23991;DHT22;12205;50.600;4.608;2024-01-10T07:56:58;-4.70;99.90
23991;DHT22;12205;50.600;4.608;2024-01-10T07:59:25;-4.70;99.90
23991;DHT22;12205;50.600;4.608;2024-01-10T08:01:56;-4.60;99.90
23991;DHT22;12205;50.600;4.608;2024-01-10T08:04:24;-4.60;99.90
23991;DHT22;12205;50.600;4.608;2024-01-10T08:06:52;-4.70;99.90
23991;DHT22;12205;50.600;4.608;2024-01-10T08:09:20;-4.60;99.90
23991;DHT22;12205;50.600;4.608;2024-01-10T08:11:47;-4.60;99.90
23991;DHT22;12205;50.600;4.608;2024-01-10T08:14:14;-4.60;99.90
23991;DHT22;12205;50.600;4.608;2024-01-10T08:16:42;-4.60;99.90
23991;DHT22;12205;50.600;4.608;2024-01-10T08:19:10;-4.50;99.90
23991;DHT22;12205;50.600;4.608;2024-01-10T08:21:37;-4.50;99.90
23991;DHT22;12205;50.600;4.608;2024-01-10T08:24:05;-4.40;99.90
23991;DHT22;12205;50.600;4.608;2024-01-10T08:26:34;-4.40;99.90
23991;DHT22;12205;50.600;4.608;2024-01-10T08:29:01;-4.40;99.90
23991;DHT22;12205;50.600;4.608;2024-01-10T08:31:28;-4.40;99.90
23991;DHT22;12205;50.600;4.608;2024-01-10T08:33:55;-4.40;99.90
23991;DHT22;12205;50.600;4.608;2024-01-10T08:36:22;-4.30;99.90
23991;DHT22;12205;50.600;4.608;2024-01-10T08:38:50;-4.30;99.90
23991;DHT22;12205;50.600;4.608;2024-01-10T08:41:17;-4.20;99.90
23991;DHT22;12205;50.600;4.608;2024-01-10T08:43:46;-4.20;99.90
23991;DHT22;12205;50.600;4.608;2024-01-10T08:46:13;-4.20;99.90
23991;DHT22;12205;50.600;4.608;2024-01-10T08:48:41;-4.10;99.90
23991;DHT22;12205;50.600;4.608;2024-01-10T08:51:08;-4.10;99.90
23991;DHT22;12205;50.600;4.608;2024-01-10T08:53:35;-4.00;99.90
23991;DHT22;12205;50.600;4.608;2024-01-10T08:56:02;-4.00;99.90
23991;DHT22;12205;50.600;4.608;2024-01-10T08:58:29;-3.90;99.90
23991;DHT22;12205;50.600;4.608;2024-01-10T09:00:58;-3.90;99.90
23991;DHT22;12205;50.600;4.608;2024-01-10T09:03:25;-3.80;99.90
23991;DHT22;12205;50.600;4.608;2024-01-10T09:05:52;-3.80;99.90
23991;DHT22;12205;50.600;4.608;2024-01-10T09:08:19;-3.70;99.90
23991;DHT22;12205;50.600;4.608;2024-01-10T09:10:45;-3.70;99.90
23991;DHT22;12205;50.600;4.608;2024-01-10T09:13:14;-3.60;99.90
23991;DHT22;12205;50.600;4.608;2024-01-10T09:15:41;-3.60;99.90
23991;DHT22;12205;50.600;4.608;2024-01-10T09:18:10;-3.50;99.90
23991;DHT22;12205;50.600;4.608;2024-01-10T09:20:36;-3.50;99.90
23991;DHT22;12205;50.600;4.608;2024-01-10T09:23:04;-3.50;99.90
23991;DHT22;12205;50.600;4.608;2024-01-10T09:25:31;-3.40;99.90
23991;DHT22;12205;50.600;4.608;2024-01-10T09:27:58;-3.40;99.90
23991;DHT22;12205;50.600;4.608;2024-01-10T09:30:24;-3.30;99.90
23991;DHT22;12205;50.600;4.608;2024-01-10T09:32:51;-3.30;99.90
23991;DHT22;12205;50.600;4.608;2024-01-10T09:35:20;-3.20;99.90
23991;DHT22;12205;50.600;4.608;2024-01-10T09:37:46;-3.20;99.90
23991;DHT22;12205;50.600;4.608;2024-01-10T09:40:14;-3.10;99.90
23991;DHT22;12205;50.600;4.608;2024-01-10T09:42:43;-3.10;99.90
23991;DHT22;12205;50.600;4.608;2024-01-10T09:45:11;-3.00;99.90
23991;DHT22;12205;50.600;4.608;2024-01-10T09:47:40;-3.00;99.90
23991;DHT22;12205;50.600;4.608;2024-01-10T09:50:08;-3.00;99.90
23991;DHT22;12205;50.600;4.608;2024-01-10T09:52:42;-2.90;99.90
23991;DHT22;12205;50.600;4.608;2024-01-10T09:55:13;-2.90;99.90
23991;DHT22;12205;50.600;4.608;2024-01-10T09:57:42;-2.80;99.90
23991;DHT22;12205;50.600;4.608;2024-01-10T10:00:11;-2.70;99.90
23991;DHT22;12205;50.600;4.608;2024-01-10T10:02:38;-2.70;99.90
23991;DHT22;12205;50.600;4.608;2024-01-10T10:05:15;-2.70;99.90
23991;DHT22;12205;50.600;4.608;2024-01-10T10:07:48;-2.60;99.90
23991;DHT22;12205;50.600;4.608;2024-01-10T10:10:15;-2.50;99.90
23991;DHT22;12205;50.600;4.608;2024-01-10T10:12:43;-2.40;99.90
23991;DHT22;12205;50.600;4.608;2024-01-10T10:15:12;-2.40;99.90
23991;DHT22;12205;50.600;4.608;2024-01-10T10:17:39;-2.30;99.90
23991;DHT22;12205;50.600;4.608;2024-01-10T10:20:13;-2.20;99.90
23991;DHT22;12205;50.600;4.608;2024-01-10T10:22:43;-2.10;99.90
23991;DHT22;12205;50.600;4.608;2024-01-10T10:25:27;-2.00;99.90
23991;DHT22;12205;50.600;4.608;2024-01-10T10:27:55;-1.90;99.90
23991;DHT22;12205;50.600;4.608;2024-01-10T10:30:22;-1.90;99.90
23991;DHT22;12205;50.600;4.608;2024-01-10T10:32:49;-1.80;99.90
23991;DHT22;12205;50.600;4.608;2024-01-10T10:35:16;-1.70;99.90
23991;DHT22;12205;50.600;4.608;2024-01-10T10:37:44;-1.70;99.90
23991;DHT22;12205;50.600;4.608;2024-01-10T10:40:11;-1.60;99.90
23991;DHT22;12205;50.600;4.608;2024-01-10T10:42:44;-1.50;99.90
23991;DHT22;12205;50.600;4.608;2024-01-10T10:45:14;-1.40;99.90
23991;DHT22;12205;50.600;4.608;2024-01-10T10:47:43;-1.40;99.90
23991;DHT22;12205;50.600;4.608;2024-01-10T10:50:13;-1.40;99.90
23991;DHT22;12205;50.600;4.608;2024-01-10T10:52:45;-1.30;99.90
23991;DHT22;12205;50.600;4.608;2024-01-10T10:55:15;-1.30;99.90
23991;DHT22;12205;50.600;4.608;2024-01-10T10:57:45;-1.10;99.90
23991;DHT22;12205;50.600;4.608;2024-01-10T11:00:14;-1.10;99.90
23991;DHT22;12205;50.600;4.608;2024-01-10T11:02:42;-1.00;99.90
23991;DHT22;12205;50.600;4.608;2024-01-10T11:05:09;-1.00;99.90
23991;DHT22;12205;50.600;4.608;2024-01-10T11:07:37;-0.90;99.90
23991;DHT22;12205;50.600;4.608;2024-01-10T11:10:08;-0.80;99.90
23991;DHT22;12205;50.600;4.608;2024-01-10T11:13:10;-0.80;99.90
23991;DHT22;12205;50.600;4.608;2024-01-10T11:16:20;-0.70;99.90
23991;DHT22;12205;50.600;4.608;2024-01-10T11:19:04;-0.60;99.90
23991;DHT22;12205;50.600;4.608;2024-01-10T11:21:45;-0.50;99.90
23991;DHT22;12205;50.600;4.608;2024-01-10T11:24:17;-0.40;99.90
23991;DHT22;12205;50.600;4.608;2024-01-10T11:26:45;-0.40;99.90
23991;DHT22;12205;50.600;4.608;2024-01-10T11:29:14;-0.30;99.90
23991;DHT22;12205;50.600;4.608;2024-01-10T11:31:41;-0.30;99.90
23991;DHT22;12205;50.600;4.608;2024-01-10T11:34:16;-0.20;99.90
23991;DHT22;12205;50.600;4.608;2024-01-10T11:37:09;-0.20;99.90
23991;DHT22;12205;50.600;4.608;2024-01-10T11:39:36;0.00;99.90
23991;DHT22;12205;50.600;4.608;2024-01-10T11:42:03;0.00;99.90
23991;DHT22;12205;50.600;4.608;2024-01-10T11:44:31;0.10;99.90
23991;DHT22;12205;50.600;4.608;2024-01-10T11:46:59;0.20;99.90
23991;DHT22;12205;50.600;4.608;2024-01-10T11:49:26;0.20;99.90
23991;DHT22;12205;50.600;4.608;2024-01-10T11:51:55;0.30;99.90
23991;DHT22;12205;50.600;4.608;2024-01-10T11:54:42;0.40;99.90
23991;DHT22;12205;50.600;4.608;2024-01-10T11:57:14;0.50;99.90
23991;DHT22;12205;50.600;4.608;2024-01-10T11:59:44;0.60;99.90
23991;DHT22;12205;50.600;4.608;2024-01-10T12:02:11;0.70;99.90
23991;DHT22;12205;50.600;4.608;2024-01-10T12:04:39;0.80;99.90
23991;DHT22;12205;50.600;4.608;2024-01-10T12:07:07;1.00;99.90
23991;DHT22;12205;50.600;4.608;2024-01-10T12:09:34;1.00;99.90
23991;DHT22;12205;50.600;4.608;2024-01-10T12:12:02;1.10;99.90
23991;DHT22;12205;50.600;4.608;2024-01-10T12:14:29;1.20;99.90
23991;DHT22;12205;50.600;4.608;2024-01-10T12:16:59;1.30;99.90
23991;DHT22;12205;50.600;4.608;2024-01-10T12:19:26;1.40;99.90
23991;DHT22;12205;50.600;4.608;2024-01-10T12:21:54;1.50;99.90
23991;DHT22;12205;50.600;4.608;2024-01-10T12:24:21;1.60;99.90
23991;DHT22;12205;50.600;4.608;2024-01-10T12:26:49;1.70;99.90
23991;DHT22;12205;50.600;4.608;2024-01-10T12:29:17;1.70;99.90
23991;DHT22;12205;50.600;4.608;2024-01-10T12:31:45;1.80;99.90
23991;DHT22;12205;50.600;4.608;2024-01-10T12:34:14;1.80;99.90
23991;DHT22;12205;50.600;4.608;2024-01-10T12:36:41;1.80;99.90
23991;DHT22;12205;50.600;4.608;2024-01-10T12:39:08;1.90;99.90
23991;DHT22;12205;50.600;4.608;2024-01-10T12:41:36;2.00;99.90
23991;DHT22;12205;50.600;4.608;2024-01-10T12:44:04;2.20;99.90
23991;DHT22;12205;50.600;4.608;2024-01-10T12:46:32;2.90;99.90
23991;DHT22;12205;50.600;4.608;2024-01-10T12:49:00;4.20;99.90
23991;DHT22;12205;50.600;4.608;2024-01-10T12:51:30;5.70;99.90
23991;DHT22;12205;50.600;4.608;2024-01-10T12:53:58;7.00;99.90
23991;DHT22;12205;50.600;4.608;2024-01-10T12:56:26;8.40;99.90
23991;DHT22;12205;50.600;4.608;2024-01-10T12:58:53;9.70;99.90
23991;DHT22;12205;50.600;4.608;2024-01-10T13:01:20;10.90;99.90
23991;DHT22;12205;50.600;4.608;2024-01-10T13:03:47;12.00;99.90
23991;DHT22;12205;50.600;4.608;2024-01-10T13:06:15;12.80;94.40
23991;DHT22;12205;50.600;4.608;2024-01-10T13:08:45;13.50;92.60
23991;DHT22;12205;50.600;4.608;2024-01-10T13:11:12;14.00;85.20
23991;DHT22;12205;50.600;4.608;2024-01-10T13:13:40;14.40;83.50
23991;DHT22;12205;50.600;4.608;2024-01-10T13:16:09;14.80;77.30
23991;DHT22;12205;50.600;4.608;2024-01-10T13:18:37;15.00;74.80
23991;DHT22;12205;50.600;4.608;2024-01-10T13:21:04;15.10;71.30
23991;DHT22;12205;50.600;4.608;2024-01-10T13:23:31;15.20;72.80
23991;DHT22;12205;50.600;4.608;2024-01-10T13:26:00;14.50;69.70
23991;DHT22;12205;50.600;4.608;2024-01-10T13:28:28;13.30;69.00
23991;DHT22;12205;50.600;4.608;2024-01-10T13:30:55;12.00;70.70
23991;DHT22;12205;50.600;4.608;2024-01-10T13:33:22;10.80;73.60
23991;DHT22;12205;50.600;4.608;2024-01-10T13:35:51;9.70;76.50
23991;DHT22;12205;50.600;4.608;2024-01-10T13:38:18;8.70;80.10
23991;DHT22;12205;50.600;4.608;2024-01-10T13:40:45;7.90;83.10
23991;DHT22;12205;50.600;4.608;2024-01-10T13:43:13;7.10;86.60
23991;DHT22;12205;50.600;4.608;2024-01-10T13:45:40;6.50;90.50
23991;DHT22;12205;50.600;4.608;2024-01-10T13:48:08;5.90;92.50
23991;DHT22;12205;50.600;4.608;2024-01-10T13:50:35;5.50;94.40
23991;DHT22;12205;50.600;4.608;2024-01-10T13:53:03;5.10;96.10
23991;DHT22;12205;50.600;4.608;2024-01-10T13:55:30;4.80;97.60
23991;DHT22;12205;50.600;4.608;2024-01-10T13:57:57;4.50;99.20
23991;DHT22;12205;50.600;4.608;2024-01-10T14:00:25;4.20;99.90
23991;DHT22;12205;50.600;4.608;2024-01-10T14:02:53;4.10;99.90
23991;DHT22;12205;50.600;4.608;2024-01-10T14:05:24;3.90;99.90
23991;DHT22;12205;50.600;4.608;2024-01-10T14:07:51;3.70;99.90
23991;DHT22;12205;50.600;4.608;2024-01-10T14:10:18;3.50;99.90
23991;DHT22;12205;50.600;4.608;2024-01-10T14:12:44;3.30;99.90
23991;DHT22;12205;50.600;4.608;2024-01-10T14:15:13;3.20;99.90
23991;DHT22;12205;50.600;4.608;2024-01-10T14:17:41;3.00;99.90
23991;DHT22;12205;50.600;4.608;2024-01-10T14:20:09;2.90;99.90
23991;DHT22;12205;50.600;4.608;2024-01-10T14:22:38;2.80;99.90
23991;DHT22;12205;50.600;4.608;2024-01-10T14:25:08;2.70;99.90
23991;DHT22;12205;50.600;4.608;2024-01-10T14:27:36;2.60;99.90
23991;DHT22;12205;50.600;4.608;2024-01-10T14:30:06;2.60;99.90
23991;DHT22;12205;50.600;4.608;2024-01-10T14:32:35;2.50;99.90
23991;DHT22;12205;50.600;4.608;2024-01-10T14:35:04;2.40;99.90
23991;DHT22;12205;50.600;4.608;2024-01-10T14:37:32;2.40;99.90
23991;DHT22;12205;50.600;4.608;2024-01-10T14:40:02;2.30;99.90
23991;DHT22;12205;50.600;4.608;2024-01-10T14:42:29;2.20;99.90
23991;DHT22;12205;50.600;4.608;2024-01-10T14:44:56;2.20;99.90
23991;DHT22;12205;50.600;4.608;2024-01-10T14:47:24;2.10;99.90
23991;DHT22;12205;50.600;4.608;2024-01-10T14:49:50;2.10;99.90
23991;DHT22;12205;50.600;4.608;2024-01-10T14:52:19;2.10;99.90
23991;DHT22;12205;50.600;4.608;2024-01-10T14:54:46;2.00;99.90
23991;DHT22;12205;50.600;4.608;2024-01-10T14:57:13;2.00;99.90
23991;DHT22;12205;50.600;4.608;2024-01-10T14:59:40;2.00;99.90
23991;DHT22;12205;50.600;4.608;2024-01-10T15:02:07;2.00;99.90
23991;DHT22;12205;50.600;4.608;2024-01-10T15:04:37;2.00;99.90
23991;DHT22;12205;50.600;4.608;2024-01-10T15:07:04;2.00;99.90
23991;DHT22;12205;50.600;4.608;2024-01-10T15:09:32;2.00;99.90
23991;DHT22;12205;50.600;4.608;2024-01-10T15:12:03;2.00;99.90
23991;DHT22;12205;50.600;4.608;2024-01-10T15:14:33;1.90;99.90
23991;DHT22;12205;50.600;4.608;2024-01-10T15:17:00;1.90;99.90
23991;DHT22;12205;50.600;4.608;2024-01-10T15:19:30;1.80;99.90
23991;DHT22;12205;50.600;4.608;2024-01-10T15:21:57;1.70;99.90
23991;DHT22;12205;50.600;4.608;2024-01-10T15:24:25;1.50;99.90
23991;DHT22;12205;50.600;4.608;2024-01-10T15:26:53;1.40;99.90
23991;DHT22;12205;50.600;4.608;2024-01-10T15:29:21;1.30;99.90
23991;DHT22;12205;50.600;4.608;2024-01-10T15:31:48;1.20;99.90
23991;DHT22;12205;50.600;4.608;2024-01-10T15:34:15;1.10;99.90
23991;DHT22;12205;50.600;4.608;2024-01-10T15:36:43;1.00;99.90
23991;DHT22;12205;50.600;4.608;2024-01-10T15:39:10;0.90;99.90